Time;durP1;ratioP1;P1;durP2;ratioP2;P2;SDS_P1;SDS_P2;PMS_P1;PMS_P2;Temp;Humidity;BMP_temperature;BMP_pressure;BME280_temperature;BME280_humidity;BME280_pressure;Samples;Min_cycle;Max_cycle;Signal;HPM_P1;HPM_P2
2023/03/03 00:00:46;;;;;;;;;64.50;47.25;;;;;6.85;53.23;101358.56;5054650;28;46186;-75
2023/03/03 00:03:17;;;;;;;;;66.00;49.25;;;;;7.00;53.29;101403.00;5055046;28;46192;-78
2023/03/03 00:05:43;;;;;;;;;52.00;42.25;;;;;7.00;52.99;101416.03;5054217;28;45714;-77
2023/03/03 00:11:31;;;;;;;;;59.50;47.50;;;;;6.86;53.73;101391.47;5054211;28;45834;-78
2023/03/03 00:13:57;;;;;;;;;62.25;46.25;;;;;6.87;53.47;101390.56;5054679;28;45559;-77
2023/03/03 00:16:24;;;;;;;;;65.25;47.00;;;;;6.89;53.65;101394.81;5054079;28;45909;-78
2023/03/03 00:18:51;;;;;;;;;59.25;45.75;;;;;6.84;53.71;101398.50;5054298;28;46711;-78
2023/03/03 00:21:25;;;;;;;;;63.00;47.00;;;;;6.87;53.68;101399.22;5054452;28;46132;-77
2023/03/03 00:27:33;;;;;;;;;58.50;45.00;;;;;6.78;53.88;101388.38;5054293;28;46180;-76
2023/03/03 00:29:59;;;;;;;;;50.00;42.25;;;;;6.79;53.86;101395.28;5054327;28;45996;-78
2023/03/03 00:32:41;;;;;;;;;52.00;43.00;;;;;6.75;53.75;101381.50;5054160;28;45802;-78
2023/03/03 00:35:38;;;;;;;;;61.75;48.25;;;;;6.85;53.79;101413.25;5054011;28;46021;-79
2023/03/03 00:38:15;;;;;;;;;62.25;48.25;;;;;6.61;53.49;101365.66;4972504;28;45843;-78
2023/03/03 00:40:41;;;;;;;;;60.50;47.75;;;;;6.55;54.00;101363.28;4972212;28;46533;-78
2023/03/03 00:43:24;;;;;;;;;57.75;47.25;;;;;6.74;54.22;101395.47;4971769;28;46177;-79
2023/03/03 00:45:54;;;;;;;;;51.25;44.50;;;;;6.78;54.04;101403.97;4971600;28;45881;-79
2023/03/03 00:48:21;;;;;;;;;53.50;43.75;;;;;6.74;54.19;101400.69;4971879;28;45709;-77
2023/03/03 00:50:47;;;;;;;;;59.00;47.25;;;;;6.73;54.09;101412.00;4971531;28;46968;-78
2023/03/03 00:53:18;;;;;;;;;50.25;43.25;;;;;6.70;54.29;101406.91;4971837;28;46385;-78
2023/03/03 00:55:46;;;;;;;;;59.25;47.75;;;;;6.42;54.09;101357.78;4971699;28;46129;-78
2023/03/03 00:58:12;;;;;;;;;56.50;45.25;;;;;6.51;54.24;101379.97;4972655;28;45656;-77
2023/03/03 01:00:37;;;;;;;;;60.50;47.50;;;;;6.27;54.21;101338.41;4971827;28;46482;-78
2023/03/03 01:03:09;;;;;;;;;56.25;43.75;;;;;6.39;54.18;101370.91;4972489;28;46153;-78
2023/03/03 01:05:35;;;;;;;;;55.00;45.00;;;;;6.40;54.45;101364.78;4972235;28;46132;-78
2023/03/03 01:08:02;;;;;;;;;51.25;41.00;;;;;6.39;54.60;101380.47;4972071;28;45932;-79
2023/03/03 01:10:31;;;;;;;;;56.00;45.25;;;;;6.58;54.50;101405.69;4972236;28;45889;-78
2023/03/03 01:12:57;;;;;;;;;56.50;45.50;;;;;6.40;54.95;101385.63;4955149;28;46280;-78
2023/03/03 01:15:23;;;;;;;;;62.00;45.25;;;;;6.53;55.03;101415.41;5045911;28;45870;-77
2023/03/03 01:17:50;;;;;;;;;49.25;40.50;;;;;6.51;54.37;101412.03;5055677;28;45800;-77
2023/03/03 01:20:16;;;;;;;;;55.25;43.25;;;;;6.29;54.62;101374.78;5056913;28;45531;-75
2023/03/03 01:22:41;;;;;;;;;51.50;43.75;;;;;6.22;55.25;101374.19;5060099;28;45555;-78
2023/03/03 01:25:08;;;;;;;;;58.50;42.50;;;;;6.14;54.99;101370.22;5059180;28;45747;-77
2023/03/03 01:27:33;;;;;;;;;55.75;45.00;;;;;5.93;55.11;101337.28;5056893;28;45651;-78
2023/03/03 01:30:00;;;;;;;;;59.25;43.00;;;;;6.09;55.43;101377.38;5054428;28;45997;-78
2023/03/03 01:32:27;;;;;;;;;58.25;45.75;;;;;6.29;55.14;101416.44;5069489;28;46614;-78
2023/03/03 01:34:53;;;;;;;;;51.25;44.25;;;;;6.07;55.03;101382.63;5053794;28;45654;-79
2023/03/03 01:37:19;;;;;;;;;55.00;44.00;;;;;6.16;54.93;101394.41;5053112;28;45868;-78
2023/03/03 01:43:32;;;;;;;;;61.25;48.00;;;;;5.86;55.45;101360.03;5057649;27;46490;-77
2023/03/03 01:45:58;;;;;;;;;48.00;41.00;;;;;6.25;55.50;101422.69;5052844;28;45884;-78
2023/03/03 01:48:30;;;;;;;;;47.00;41.33;;;;;6.23;55.18;101414.91;5053286;28;45665;-77
2023/03/03 01:51:01;;;;;;;;;59.00;43.00;;;;;6.23;55.56;101403.66;5052737;28;45694;-78
2023/03/03 01:53:45;;;;;;;;;58.00;45.50;;;;;6.18;55.94;101398.66;5053223;28;46367;-79
2023/03/03 01:56:11;;;;;;;;;56.00;46.50;;;;;6.03;55.68;101385.41;5052991;28;45744;-78
2023/03/03 01:58:42;;;;;;;;;57.75;45.50;;;;;6.10;56.01;101408.50;5053359;28;45682;-77
2023/03/03 02:01:14;;;;;;;;;60.25;46.75;;;;;5.77;56.12;101360.41;5052812;28;45914;-78
2023/03/03 02:03:42;;;;;;;;;41.50;37.25;;;;;5.90;56.41;101390.25;5052539;28;46166;-77
2023/03/03 02:06:13;;;;;;;;;59.50;44.50;;;;;5.76;56.59;101369.13;5052106;28;45810;-78
2023/03/03 02:08:52;;;;;;;;;57.50;43.50;;;;;5.90;56.74;101409.28;5052561;28;45550;-77
2023/03/03 02:11:20;;;;;;;;;54.25;44.25;;;;;5.79;56.26;101397.56;5052997;28;45903;-77
2023/03/03 02:13:46;;;;;;;;;60.00;47.25;;;;;5.52;56.37;101341.44;5054807;28;46160;-77
2023/03/03 02:16:13;;;;;;;;;54.00;44.00;;;;;5.83;57.23;101405.19;5056696;28;45725;-79
2023/03/03 02:18:38;;;;;;;;;54.00;44.00;;;;;5.54;57.70;101363.03;5056635;28;45675;-79
2023/03/03 02:21:14;;;;;;;;;53.75;43.50;;;;;5.69;57.63;101404.03;5056139;28;45547;-78
2023/03/03 02:23:51;;;;;;;;;59.50;45.25;;;;;5.60;57.86;101402.66;5056263;28;45784;-78
2023/03/03 02:26:21;;;;;;;;;54.75;44.25;;;;;5.54;57.95;101405.47;5056019;28;45538;-78
2023/03/03 02:28:47;;;;;;;;;58.25;46.50;;;;;5.51;57.94;101402.97;5056497;28;45689;-77
2023/03/03 02:31:16;;;;;;;;;60.00;48.50;;;;;5.25;57.83;101364.97;5056280;28;45651;-78
2023/03/03 02:33:45;;;;;;;;;58.50;45.75;;;;;5.35;58.16;101381.91;5056202;28;46490;-77
2023/03/03 02:36:17;;;;;;;;;64.25;43.50;;;;;5.40;58.27;101397.31;5055871;28;45657;-78
2023/03/03 02:38:42;;;;;;;;;61.75;45.25;;;;;5.37;58.39;101390.50;5056009;28;45827;-76
2023/03/03 02:41:20;;;;;;;;;46.00;44.67;;;;;5.38;58.21;101400.00;5055861;28;45902;-78
2023/03/03 02:43:58;;;;;;;;;52.50;43.25;;;;;5.39;58.43;101393.91;5055618;28;46118;-78
2023/03/03 02:46:24;;;;;;;;;56.50;46.75;;;;;5.06;58.54;101338.84;5055726;28;45808;-78
2023/03/03 02:48:49;;;;;;;;;57.50;40.00;;;;;5.39;58.44;101393.06;5055585;28;45717;-77
2023/03/03 02:51:15;;;;;;;;;63.50;48.50;;;;;5.30;57.97;101380.38;5055902;28;45626;-78
2023/03/03 02:53:40;;;;;;;;;53.75;45.25;;;;;5.19;58.08;101366.94;5055664;28;45587;-77
2023/03/03 02:56:08;;;;;;;;;52.75;45.00;;;;;5.45;58.25;101406.66;5055406;28;45533;-78
2023/03/03 02:58:34;;;;;;;;;56.00;45.25;;;;;5.22;58.42;101356.47;5056245;28;45709;-78
2023/03/03 03:00:59;;;;;;;;;50.00;45.25;;;;;5.50;57.94;101411.69;5037798;28;47485;-79
2023/03/03 03:03:24;;;;;;;;;57.33;44.33;;;;;5.53;58.26;101402.91;5055765;28;46429;-79
2023/03/03 03:05:50;;;;;;;;;57.25;47.50;;;;;5.29;57.96;101363.94;5036939;28;45880;-79
2023/03/03 03:08:15;;;;;;;;;52.50;44.00;;;;;5.25;58.01;101358.94;5055784;28;45602;-77
2023/03/03 03:14:03;;;;;;;;;55.50;45.00;;;;;5.37;58.13;101369.72;5055569;28;45751;-77
2023/03/03 03:16:30;;;;;;;;;52.50;42.00;;;;;5.24;58.06;101342.50;5055484;28;45813;-78
2023/03/03 03:18:56;;;;;;;;;53.75;43.50;;;;;5.27;58.26;101363.19;5055958;28;45674;-78
2023/03/03 03:21:22;;;;;;;;;54.50;44.50;;;;;5.03;58.09;101314.72;5055346;28;45679;-77
2023/03/03 03:23:47;;;;;;;;;44.50;42.00;;;;;5.32;58.23;101358.66;5054446;28;45734;-77
2023/03/03 03:29:34;;;;;;;;;56.25;45.50;;;;;5.38;58.28;101374.03;5055193;28;45622;-77
2023/03/03 03:31:59;;;;;;;;;53.50;41.50;;;;;5.13;58.60;101344.63;5055181;28;46942;-79
2023/03/03 03:34:25;;;;;;;;;43.75;35.25;;;;;5.50;58.40;101403.91;5055346;28;45919;-77
2023/03/03 03:36:50;;;;;;;;;52.75;42.75;;;;;5.29;58.63;101365.72;5055240;28;45663;-79
2023/03/03 03:39:16;;;;;;;;;53.75;41.50;;;;;5.15;58.29;101342.00;5055312;28;45627;-77
2023/03/03 03:41:41;;;;;;;;;57.25;45.00;;;;;5.49;58.09;101402.19;5055165;28;46478;-76
2023/03/03 03:44:06;;;;;;;;;61.00;44.75;;;;;5.50;58.62;101390.91;5054757;28;45602;-79
2023/03/03 03:46:32;;;;;;;;;57.25;45.50;;;;;5.51;58.15;101408.16;5055225;28;45631;-76
2023/03/03 03:48:57;;;;;;;;;59.00;45.75;;;;;5.29;58.58;101368.31;5055198;28;45788;-77
2023/03/03 03:51:23;;;;;;;;;58.50;47.00;;;;;5.38;58.62;101388.75;5055054;28;46328;-78
2023/03/03 03:53:48;;;;;;;;;57.50;43.25;;;;;5.39;58.73;101396.50;5054991;28;45626;-78
2023/03/03 03:59:35;;;;;;;;;53.75;44.75;;;;;5.45;58.61;101413.63;5057441;28;45841;-78
2023/03/03 04:02:01;;;;;;;;;64.75;45.75;;;;;5.47;59.15;101427.38;5059605;28;47156;-78
2023/03/03 04:04:27;;;;;;;;;54.25;44.50;;;;;5.43;58.81;101426.66;5039316;28;45832;-77
2023/03/03 04:06:52;;;;;;;;;58.50;49.00;;;;;5.42;58.85;101422.34;5055633;28;45643;-77
2023/03/03 04:09:17;;;;;;;;;52.75;44.50;;;;;5.12;59.03;101370.69;5055164;28;45687;-78
2023/03/03 04:15:07;;;;;;;;;45.50;41.00;;;;;5.22;59.27;101395.41;5056058;28;45936;-76
2023/03/03 04:17:33;;;;;;;;;63.50;47.75;;;;;4.87;59.27;101344.75;5055858;28;45671;-78
2023/03/03 04:19:58;;;;;;;;;48.50;39.25;;;;;5.29;59.52;101413.31;5056217;28;45859;-78
2023/03/03 04:22:25;;;;;;;;;53.00;45.50;;;;;5.32;59.59;101417.56;5057269;28;47000;-77
2023/03/03 04:24:50;;;;;;;;;53.75;40.75;;;;;4.87;59.30;101347.34;5058168;28;45541;-78
2023/03/03 04:27:16;;;;;;;;;45.50;39.25;;;;;4.99;59.26;101373.72;5056764;28;45564;-77
2023/03/03 04:29:41;;;;;;;;;47.50;42.50;;;;;4.91;59.16;101357.56;5055492;28;45517;-77
2023/03/03 04:32:07;;;;;;;;;54.75;46.25;;;;;5.07;59.55;101400.25;5054409;28;45633;-77
2023/03/03 04:34:32;;;;;;;;;56.75;45.25;;;;;5.17;59.37;101411.19;5054368;28;45640;-77
2023/03/03 04:36:57;;;;;;;;;58.50;46.75;;;;;5.18;60.00;101420.66;5052570;28;45985;-78
2023/03/03 04:39:23;;;;;;;;;60.00;45.50;;;;;4.96;59.49;101388.56;5054749;28;45599;-78
2023/03/03 04:45:50;;;;;;;;;57.50;43.75;;;;;5.24;60.55;101436.00;5056378;27;46050;-77
2023/03/03 04:48:16;;;;;;;;;69.25;50.50;;;;;5.24;60.37;101440.34;5053989;28;45590;-77
2023/03/03 04:50:42;;;;;;;;;61.50;45.75;;;;;5.20;60.54;101436.19;5035802;28;45639;-77
2023/03/03 04:53:07;;;;;;;;;55.75;45.25;;;;;5.22;60.21;101436.97;5053770;28;45792;-78
2023/03/03 04:55:35;;;;;;;;;62.00;45.50;;;;;5.15;60.65;101425.09;5052635;28;46258;-78
2023/03/03 04:58:00;;;;;;;;;55.75;46.25;;;;;4.89;60.46;101376.69;5054508;28;46001;-77
2023/03/03 05:00:26;;;;;;;;;60.75;46.75;;;;;4.79;60.89;101371.00;5053723;28;45830;-76
2023/03/03 05:02:51;;;;;;;;;62.00;46.50;;;;;5.18;60.68;101436.25;5053815;28;46501;-77
2023/03/03 05:05:17;;;;;;;;;58.50;48.00;;;;;4.74;61.31;101372.03;5053097;28;46264;-76
2023/03/03 05:07:42;;;;;;;;;61.00;46.75;;;;;5.01;60.97;101410.88;5053427;28;45833;-78
2023/03/03 05:10:08;;;;;;;;;55.75;42.75;;;;;5.14;61.02;101434.63;5053414;28;45632;-78
2023/03/03 05:15:55;;;;;;;;;57.00;47.75;;;;;5.06;61.30;101429.75;5052853;28;45749;-78
2023/03/03 05:18:25;;;;;;;;;58.75;48.50;;;;;5.05;61.15;101445.34;5054434;28;45657;-76
2023/03/03 05:20:51;;;;;;;;;70.75;49.50;;;;;4.85;61.26;101411.47;5054459;28;45560;-78
2023/03/03 05:23:17;;;;;;;;;63.00;50.00;;;;;4.55;61.70;101371.81;5052255;28;47955;-78
2023/03/03 05:25:44;;;;;;;;;62.50;50.25;;;;;4.98;61.49;101431.75;5054063;28;46393;-78
2023/03/03 05:28:10;;;;;;;;;65.50;49.75;;;;;4.64;61.65;101382.72;5054232;28;45676;-77
2023/03/03 05:30:36;;;;;;;;;65.00;49.75;;;;;4.70;62.05;101389.44;5054257;28;45743;-77
2023/03/03 05:33:03;;;;;;;;;66.75;52.00;;;;;4.71;61.74;101395.50;5053858;28;46723;-78
2023/03/03 05:35:29;;;;;;;;;56.00;47.25;;;;;4.93;62.08;101432.78;5056120;28;45567;-76
2023/03/03 05:37:56;;;;;;;;;52.50;41.50;;;;;4.90;62.29;101438.97;5056179;28;45635;-78
2023/03/03 05:40:23;;;;;;;;;69.75;50.25;;;;;4.62;62.24;101388.88;5053906;28;46162;-79
2023/03/03 05:46:10;;;;;;;;;58.75;45.50;;;;;4.67;62.56;101420.72;5060599;27;45672;-78
2023/03/03 05:48:35;;;;;;;;;55.00;44.50;;;;;4.79;62.42;101441.06;5057724;28;45670;-80
2023/03/03 05:51:01;;;;;;;;;62.50;47.75;;;;;4.46;62.38;101385.09;5057353;28;45897;-76
2023/03/03 05:53:27;;;;;;;;;63.00;48.50;;;;;4.80;62.35;101432.38;5057514;28;46342;-79
2023/03/03 05:55:53;;;;;;;;;54.00;44.75;;;;;4.42;62.53;101373.16;5057551;28;45977;-77
2023/03/03 06:01:40;;;;;;;;;72.00;55.50;;;;;4.79;62.57;101450.59;5057575;28;45690;-79
2023/03/03 06:04:06;;;;;;;;;60.75;47.00;;;;;4.65;62.91;101425.94;5060642;28;45488;-79
2023/03/03 06:06:31;;;;;;;;;58.25;45.25;;;;;4.76;62.81;101445.50;5060360;28;46252;-77
2023/03/03 06:08:57;;;;;;;;;52.25;43.25;;;;;4.51;62.49;101416.94;5058185;28;45519;-79
2023/03/03 06:11:22;;;;;;;;;56.50;47.50;;;;;4.65;63.07;101438.91;5057269;28;45662;-78
2023/03/03 06:13:48;;;;;;;;;60.25;45.25;;;;;4.57;63.06;101424.50;5056628;28;46876;-79
2023/03/03 06:16:13;;;;;;;;;64.25;49.50;;;;;4.50;62.57;101423.00;5056448;28;46079;-78
2023/03/03 06:18:38;;;;;;;;;64.00;50.00;;;;;4.40;62.95;101408.66;5056579;28;45588;-76
2023/03/03 06:21:04;;;;;;;;;64.25;50.50;;;;;4.62;62.80;101439.03;5056410;28;45969;-74
2023/03/03 06:23:29;;;;;;;;;59.25;46.25;;;;;4.62;62.95;101443.38;5037784;28;48717;-75
2023/03/03 06:25:55;;;;;;;;;60.33;47.67;;;;;4.60;63.22;101450.34;5055193;28;46084;-76
2023/03/03 06:31:42;;;;;;;;;64.75;51.50;;;;;4.55;63.52;101467.81;5055244;28;45505;-74
2023/03/03 06:34:08;;;;;;;;;49.50;43.50;;;;;4.51;63.43;101467.06;5055252;28;46914;-73
2023/03/03 06:36:33;;;;;;;;;65.25;51.50;;;;;4.50;63.49;101474.91;5054858;28;47092;-75
2023/03/03 06:38:59;;;;;;;;;67.25;52.50;;;;;4.52;64.00;101486.94;5055484;28;45707;-74
2023/03/03 06:41:25;;;;;;;;;71.75;54.25;;;;;4.51;63.62;101484.38;5055010;28;45669;-76
2023/03/03 06:47:12;;;;;;;;;69.75;53.50;;;;;4.44;64.05;101498.44;5060989;27;45918;-74
2023/03/03 06:49:37;;;;;;;;;68.50;55.00;;;;;4.31;64.13;101494.56;5055371;28;45650;-75
2023/03/03 06:52:12;;;;;;;;;73.25;55.75;;;;;4.34;64.39;101502.22;5055383;28;45861;-75
2023/03/03 06:54:37;;;;;;;;;70.00;55.75;;;;;4.35;64.37;101511.72;5055694;28;46392;-73
2023/03/03 06:57:34;;;;;;;;;68.25;54.50;;;;;4.31;64.22;101515.31;5036511;28;47040;-77
2023/03/03 07:00:15;;;;;;;;;65.75;50.00;;;;;4.25;64.49;101503.38;5054847;28;45925;-76
2023/03/03 07:02:40;;;;;;;;;68.75;52.50;;;;;4.26;64.73;101506.81;5055329;28;45586;-74
2023/03/03 07:05:13;;;;;;;;;78.75;55.50;;;;;4.31;64.27;101520.50;5054332;28;45666;-73
2023/03/03 07:07:38;;;;;;;;;75.75;56.75;;;;;4.32;64.60;101527.38;5055005;28;46056;-74
2023/03/03 07:10:15;;;;;;;;;75.50;52.00;;;;;4.25;64.69;101505.97;5054617;28;45813;-74
2023/03/03 07:12:40;;;;;;;;;77.50;59.00;;;;;4.25;64.44;101510.28;5036757;28;46079;-75
2023/03/03 07:15:16;;;;;;;;;72.25;52.25;;;;;4.32;64.85;101543.75;5054334;28;46832;-73
2023/03/03 07:17:48;;;;;;;;;76.25;59.50;;;;;4.33;64.56;101534.25;5055094;28;45954;-74
2023/03/03 07:20:23;;;;;;;;;81.75;60.00;;;;;4.36;64.47;101541.94;5036643;28;45815;-77
2023/03/03 07:22:48;;;;;;;;;71.75;57.75;;;;;4.41;64.57;101548.69;5054941;28;45678;-74
2023/03/03 07:25:32;;;;;;;;;81.25;59.50;;;;;4.43;64.20;101543.44;5054728;28;47375;-75
2023/03/03 07:28:10;;;;;;;;;79.50;60.00;;;;;4.43;64.26;101536.50;5054633;28;45765;-74
2023/03/03 07:30:35;;;;;;;;;80.00;57.00;;;;;4.52;64.08;101544.03;5054638;28;45616;-74
2023/03/03 07:33:00;;;;;;;;;85.50;61.75;;;;;4.46;64.04;101523.44;5055208;28;45568;-74
2023/03/03 07:35:45;;;;;;;;;74.25;55.50;;;;;4.55;64.07;101543.91;5054411;28;46566;-74
2023/03/03 07:38:13;;;;;;;;;72.25;56.75;;;;;4.59;64.17;101539.47;5055201;28;46100;-75
2023/03/03 07:40:55;;;;;;;;;82.25;62.50;;;;;4.58;63.83;101548.19;5055451;28;45907;-75
2023/03/03 07:43:38;;;;;;;;;76.50;59.75;;;;;4.53;64.11;101537.09;5054516;28;45579;-74
2023/03/03 07:46:10;;;;;;;;;85.00;58.50;;;;;4.57;64.47;101544.72;5054162;28;47426;-74
2023/03/03 07:48:38;;;;;;;;;79.00;59.75;;;;;4.56;64.59;101544.75;5054387;28;46272;-74
2023/03/03 07:51:14;;;;;;;;;82.50;66.00;;;;;4.53;64.04;101544.88;5054445;28;46000;-74
2023/03/03 07:53:40;;;;;;;;;76.25;61.00;;;;;4.53;64.11;101555.25;5036701;28;45631;-76
2023/03/03 07:56:38;;;;;;;;;70.25;58.50;;;;;4.50;64.34;101563.13;5053715;28;46384;-75
2023/03/03 07:59:20;;;;;;;;;79.50;57.50;;;;;4.51;64.62;101573.44;4972148;28;48450;-74
2023/03/03 08:01:49;;;;;;;;;80.00;60.00;;;;;4.48;64.16;101564.94;4972385;28;45921;-75
2023/03/03 08:04:19;;;;;;;;;76.00;59.50;;;;;4.47;64.17;101569.25;4972768;28;45601;-74
2023/03/03 08:06:45;;;;;;;;;71.25;51.75;;;;;4.47;64.19;101571.00;4972147;28;45831;-74
2023/03/03 08:09:10;;;;;;;;;79.00;59.33;;;;;4.48;64.53;101577.91;4973265;28;45751;-75
2023/03/03 08:11:50;;;;;;;;;72.67;56.00;;;;;4.45;64.55;101580.56;4972997;28;45798;-76
2023/03/03 08:14:23;;;;;;;;;77.25;62.25;;;;;4.44;64.32;101578.88;4974759;28;45932;-76
2023/03/03 08:16:50;;;;;;;;;75.75;58.25;;;;;4.43;64.58;101580.59;4973498;28;46511;-75
2023/03/03 08:19:17;;;;;;;;;72.00;56.50;;;;;4.48;64.45;101586.50;4972267;28;46504;-74
2023/03/03 08:21:42;;;;;;;;;73.75;57.75;;;;;4.39;64.63;101560.84;4972631;28;45777;-74
2023/03/03 08:24:08;;;;;;;;;80.00;59.75;;;;;4.40;64.65;101564.28;4971870;28;46504;-74
2023/03/03 08:26:33;;;;;;;;;72.75;55.75;;;;;4.51;65.13;101580.38;4971966;28;45666;-74
2023/03/03 08:29:00;;;;;;;;;76.75;58.75;;;;;4.49;64.83;101582.16;4971965;28;46124;-75
2023/03/03 08:31:26;;;;;;;;;73.50;58.00;;;;;4.41;64.76;101574.63;4971878;28;45680;-74
2023/03/03 08:33:52;;;;;;;;;76.00;58.25;;;;;4.46;64.51;101577.94;4985383;28;45903;-75
2023/03/03 08:36:17;;;;;;;;;70.50;54.25;;;;;4.53;64.70;101594.19;5053284;28;47889;-74
2023/03/03 08:38:43;;;;;;;;;75.25;52.75;;;;;4.47;64.56;101583.97;5053861;28;46264;-75
2023/03/03 08:41:09;;;;;;;;;81.25;58.75;;;;;4.58;64.54;101607.84;5053734;28;45645;-74
2023/03/03 08:43:34;;;;;;;;;74.00;59.25;;;;;4.52;64.68;101580.34;5053863;28;45686;-76
2023/03/03 08:46:04;;;;;;;;;72.75;56.00;;;;;4.62;64.59;101588.69;5053180;28;47396;-75
2023/03/03 08:48:30;;;;;;;;;75.50;58.50;;;;;4.70;64.25;101601.44;5051970;28;47791;-74
2023/03/03 08:50:57;;;;;;;;;73.00;57.25;;;;;4.74;64.33;101601.28;5053543;28;45596;-76
2023/03/03 08:53:22;;;;;;;;;81.00;58.75;;;;;4.77;63.98;101598.59;5053757;28;46009;-74
2023/03/03 08:55:48;;;;;;;;;79.00;57.25;;;;;4.81;64.44;101599.34;5053121;28;45888;-75
2023/03/03 08:58:15;;;;;;;;;79.75;58.25;;;;;4.72;64.02;101587.50;5052968;28;46161;-75
2023/03/03 09:00:40;;;;;;;;;73.25;57.00;;;;;4.89;64.03;101612.94;5052798;28;45635;-74
2023/03/03 09:03:07;;;;;;;;;81.50;57.50;;;;;4.92;64.07;101603.28;5053366;28;45694;-75
2023/03/03 09:05:34;;;;;;;;;70.75;58.75;;;;;4.93;64.02;101606.75;5052701;28;46457;-75
2023/03/03 09:08:00;;;;;;;;;80.00;62.00;;;;;4.99;63.80;101619.53;5053055;28;46398;-75
2023/03/03 09:10:28;;;;;;;;;71.50;51.00;;;;;5.04;63.28;101613.31;5052630;28;45855;-75
2023/03/03 09:12:57;;;;;;;;;73.75;57.00;;;;;5.06;63.58;101616.72;5052902;28;45870;-75
2023/03/03 09:18:44;;;;;;;;;80.50;55.75;;;;;5.05;63.24;101608.97;5052668;28;45671;-75
2023/03/03 09:21:25;;;;;;;;;68.00;52.50;;;;;5.06;63.27;101611.53;5052941;28;45822;-74
2023/03/03 09:23:57;;;;;;;;;76.50;55.50;;;;;5.08;63.00;101612.28;5034982;28;45807;-73
2023/03/03 09:26:27;;;;;;;;;68.50;55.25;;;;;5.07;63.27;101599.38;5033810;28;48055;-74
2023/03/03 09:29:03;;;;;;;;;76.00;55.25;;;;;5.03;62.56;101595.16;5052430;28;47294;-73
2023/03/03 09:31:42;;;;;;;;;75.75;54.75;;;;;5.14;62.68;101602.59;5053178;28;45801;-74
2023/03/03 09:34:22;;;;;;;;;71.00;50.25;;;;;5.34;62.67;101615.81;5035803;28;45851;-74
2023/03/03 09:36:49;;;;;;;;;69.75;53.75;;;;;5.38;62.12;101623.44;5034915;28;48210;-74
2023/03/03 09:39:28;;;;;;;;;66.50;49.00;;;;;4.90;61.89;101542.81;5051167;28;47807;-74
2023/03/03 09:42:49;;;;;;;;;67.00;53.50;;;;;5.41;62.47;101619.88;5053211;28;45727;-76
2023/03/03 09:45:29;;;;;;;;;74.75;52.25;;;;;5.39;61.94;101619.97;4989751;28;45631;-75
2023/03/03 09:48:07;;;;;;;;;73.25;46.00;;;;;5.41;62.22;101632.88;5044864;28;47738;-73
2023/03/03 09:50:49;;;;;;;;;66.75;50.75;;;;;5.43;61.75;101626.75;5052298;28;47592;-73
2023/03/03 09:53:26;;;;;;;;;70.25;52.50;;;;;5.48;61.89;101621.38;5052542;28;45504;-74
2023/03/03 09:56:15;;;;;;;;;66.75;52.75;;;;;5.53;61.63;101623.81;5052502;28;45747;-73
2023/03/03 10:02:14;;;;;;;;;64.75;49.25;;;;;5.57;61.73;101615.00;5052279;28;46239;-75
2023/03/03 10:04:46;;;;;;;;;65.75;50.25;;;;;5.51;61.11;101613.47;5052088;28;45800;-74
2023/03/03 10:07:24;;;;;;;;;65.50;52.50;;;;;5.55;61.08;101615.09;5052725;28;45479;-75
2023/03/03 10:10:11;;;;;;;;;67.25;49.50;;;;;5.62;61.42;101623.50;5052539;28;46942;-75
2023/03/03 10:12:57;;;;;;;;;61.75;48.50;;;;;5.71;60.98;101641.41;5051908;28;46203;-74
2023/03/03 10:19:09;;;;;;;;;61.00;49.00;;;;;5.78;60.57;101659.31;5053088;28;45587;-74
2023/03/03 10:21:43;;;;;;;;;69.00;51.75;;;;;5.78;60.35;101661.06;5034592;28;46959;-73
2023/03/03 10:24:25;;;;;;;;;58.25;45.25;;;;;5.80;60.09;101665.31;5052057;28;46153;-74
2023/03/03 10:27:00;;;;;;;;;69.50;50.50;;;;;5.73;60.52;101649.97;5051452;28;45645;-74
2023/03/03 10:29:41;;;;;;;;;59.50;45.25;;;;;5.78;60.51;101661.91;5051779;28;45817;-74
2023/03/03 10:32:50;;;;;;;;;56.00;44.00;;;;;5.81;59.83;101658.38;5052298;28;46514;-75
2023/03/03 10:35:40;;;;;;;;;60.75;47.75;;;;;5.81;59.90;101658.38;5046688;28;46368;-74
2023/03/03 10:38:18;;;;;;;;;68.50;50.25;;;;;5.82;59.85;101665.28;5056590;28;45582;-74
2023/03/03 10:41:03;;;;;;;;;60.25;47.25;;;;;5.82;59.82;101675.69;5057274;28;45928;-74
2023/03/03 10:43:41;;;;;;;;;56.00;43.75;;;;;5.68;60.18;101646.69;5056632;28;45702;-75
2023/03/03 10:46:13;;;;;;;;;61.25;46.00;;;;;5.83;59.71;101660.00;5054770;27;46288;-74
2023/03/03 10:49:03;;;;;;;;;46.75;39.00;;;;;5.86;59.77;101659.91;5055122;28;45877;-74
2023/03/03 10:51:41;;;;;;;;;62.00;49.50;;;;;5.89;59.81;101665.03;5055224;28;45581;-74
2023/03/03 10:54:46;;;;;;;;;62.25;47.75;;;;;5.93;59.44;101654.53;5054960;28;45625;-74
2023/03/03 10:57:45;;;;;;;;;65.50;47.25;;;;;5.97;59.76;101662.19;5055020;28;46347;-73
2023/03/03 11:03:49;;;;;;;;;60.25;46.00;;;;;6.08;59.47;101651.41;5055272;28;45809;-73
2023/03/03 11:06:28;;;;;;;;;65.75;47.75;;;;;6.12;59.59;101652.97;5054702;28;46481;-75
2023/03/03 11:09:11;;;;;;;;;56.25;46.25;;;;;6.19;59.40;101664.88;5054900;28;46109;-75
2023/03/03 11:11:57;;;;;;;;;63.75;48.00;;;;;6.19;58.94;101650.09;5054513;28;45954;-74
2023/03/03 11:14:32;;;;;;;;;55.25;44.75;;;;;6.23;58.80;101643.88;5055264;28;45893;-74
2023/03/03 11:20:36;;;;;;;;;59.75;48.25;;;;;6.41;58.84;101654.53;5055077;28;46047;-73
2023/03/03 11:23:40;;;;;;;;;52.25;39.75;;;;;6.46;58.68;101650.84;5055235;28;45800;-72
2023/03/03 11:26:29;;;;;;;;;67.75;48.75;;;;;6.51;58.43;101648.91;4972451;28;46043;-75
2023/03/03 11:29:04;;;;;;;;;61.25;47.75;;;;;6.57;58.43;101640.88;4972505;28;45840;-73
2023/03/03 11:31:43;;;;;;;;;57.00;47.00;;;;;6.65;58.13;101643.16;4972316;28;46052;-73
2023/03/03 11:34:14;;;;;;;;;66.00;48.50;;;;;6.72;57.94;101652.47;4972352;28;46040;-75
2023/03/03 11:36:51;;;;;;;;;62.50;48.25;;;;;6.77;58.09;101642.72;4971987;28;45718;-74
2023/03/03 11:39:22;;;;;;;;;57.50;45.50;;;;;6.84;58.00;101638.13;4972468;28;47316;-74
2023/03/03 11:41:50;;;;;;;;;57.50;45.00;;;;;6.92;57.72;101647.31;4972503;28;46166;-74
2023/03/03 11:44:35;;;;;;;;;61.25;46.75;;;;;6.96;57.22;101637.66;4972365;28;46069;-73
2023/03/03 11:47:15;;;;;;;;;57.75;45.50;;;;;6.98;57.39;101631.44;4980531;28;45685;-74
2023/03/03 11:50:19;;;;;;;;;58.50;47.50;;;;;7.12;57.01;101638.72;4991769;28;46561;-74
2023/03/03 11:52:58;;;;;;;;;54.25;45.25;;;;;7.18;56.77;101632.44;4991775;28;45722;-73
2023/03/03 11:55:36;;;;;;;;;60.75;44.50;;;;;7.23;56.64;101633.94;4991108;28;45969;-74
2023/03/03 11:58:14;;;;;;;;;51.00;42.25;;;;;7.30;56.55;101626.69;4992366;28;45702;-73
2023/03/03 12:04:12;;;;;;;;;58.75;46.50;;;;;7.43;56.06;101620.06;5074018;28;45790;-74
2023/03/03 12:06:40;;;;;;;;;52.50;41.50;;;;;7.46;55.96;101620.78;5073655;28;45926;-72
2023/03/03 12:09:19;;;;;;;;;58.25;44.00;;;;;7.50;55.74;101632.75;5073997;28;45671;-75
2023/03/03 12:12:07;;;;;;;;;51.25;40.25;;;;;7.58;55.66;101611.59;5056843;28;45573;-75
2023/03/03 12:14:38;;;;;;;;;42.50;38.00;;;;;7.64;55.49;101606.13;5073726;28;46276;-75
2023/03/03 12:20:56;;;;;;;;;49.75;40.50;;;;;7.77;54.91;101614.28;5075607;28;45549;-74
2023/03/03 12:23:36;;;;;;;;;50.00;43.50;;;;;7.82;54.93;101601.88;5075524;28;46033;-74
2023/03/03 12:26:19;;;;;;;;;49.00;39.75;;;;;7.84;54.85;101600.03;5074876;28;45579;-73
2023/03/03 12:29:03;;;;;;;;;57.50;42.75;;;;;7.94;54.43;101603.94;5074779;28;45551;-73
2023/03/03 12:31:38;;;;;;;;;49.50;40.25;;;;;7.99;54.10;101605.41;5074892;28;45586;-74
2023/03/03 12:34:15;;;;;;;;;51.50;42.25;;;;;8.09;54.47;101592.84;5076214;28;46595;-75
2023/03/03 12:36:57;;;;;;;;;52.00;41.00;;;;;8.17;53.96;101595.94;5076320;28;45573;-72
2023/03/03 12:39:41;;;;;;;;;58.00;42.00;;;;;8.25;53.81;101596.44;5056864;28;45823;-74
2023/03/03 12:42:06;;;;;;;;;46.75;39.25;;;;;8.32;53.54;101592.66;5057243;28;45638;-74
2023/03/03 12:45:09;;;;;;;;;49.50;39.00;;;;;8.41;53.50;101586.19;5075167;28;46339;-73